Time;durP1;ratioP1;P1;durP2;ratioP2;P2;SDS_P1;SDS_P2;PMS_P1;PMS_P2;Temp;Humidity;BMP_temperature;BMP_pressure;BME280_temperature;BME280_humidity;BME280_pressure;Samples;Min_cycle;Max_cycle;Signal;HPM_P1;HPM_P2
2022/03/04 00:02:07;;;;;;;17.03;12.97;;;4.20;99.90;;;;;;5025025;28;20645;-40
2022/03/04 00:04:37;;;;;;;17.77;12.97;;;4.30;99.90;;;;;;5024779;28;20571;-38
2022/03/04 00:07:03;;;;;;;19.13;14.03;;;4.20;99.90;;;;;;5031551;28;20186;-38
2022/03/04 00:09:29;;;;;;;19.50;13.83;;;4.30;99.90;;;;;;5026862;28;20460;-38
2022/03/04 00:11:54;;;;;;;20.43;13.50;;;4.40;99.90;;;;;;5026863;28;20471;-38
2022/03/04 00:14:20;;;;;;;19.97;14.17;;;4.50;99.70;;;;;;5009804;28;20657;-37
2022/03/04 00:16:46;;;;;;;21.27;14.67;;;4.50;99.90;;;;;;5027128;28;20194;-38
2022/03/04 00:19:12;;;;;;;18.50;13.83;;;4.40;99.80;;;;;;5027525;28;20216;-37
2022/03/04 00:21:48;;;;;;;20.90;14.50;;;4.20;99.70;;;;;;5014903;28;20224;-38
2022/03/04 00:24:15;;;;;;;18.87;12.80;;;4.20;99.90;;;;;;5023108;28;20417;-38
2022/03/04 00:26:43;;;;;;;18.67;13.30;;;4.70;99.40;;;;;;5027074;28;20429;-37
2022/03/04 00:29:09;;;;;;;21.80;13.97;;;4.60;98.90;;;;;;5027192;28;20417;-38
2022/03/04 00:31:36;;;;;;;19.93;13.80;;;4.80;98.60;;;;;;5026356;28;20427;-38
2022/03/04 00:34:06;;;;;;;17.37;13.93;;;4.70;98.20;;;;;;5027224;28;20790;-38
2022/03/04 00:36:38;;;;;;;20.97;14.70;;;4.70;98.50;;;;;;5015794;28;20888;-38
2022/03/04 00:39:08;;;;;;;18.43;13.70;;;4.50;99.50;;;;;;5027089;28;20435;-38
2022/03/04 00:41:34;;;;;;;19.37;13.67;;;4.30;99.90;;;;;;5024867;28;20789;-38
2022/03/04 00:44:00;;;;;;;17.00;13.03;;;4.00;99.90;;;;;;5027444;28;20420;-38
2022/03/04 00:46:26;;;;;;;19.97;13.43;;;3.70;99.90;;;;;;5027146;28;20412;-38
2022/03/04 00:48:52;;;;;;;19.80;14.30;;;3.80;99.90;;;;;;5026597;28;20795;-37
2022/03/04 00:51:17;;;;;;;21.00;13.90;;;4.10;99.90;;;;;;5017082;28;20187;-37
2022/03/04 00:53:43;;;;;;;21.00;14.57;;;4.00;99.90;;;;;;5041387;28;20417;-38
2022/03/04 00:56:10;;;;;;;20.83;14.33;;;3.90;99.90;;;;;;5025431;28;20186;-37
2022/03/04 00:58:37;;;;;;;17.83;13.43;;;3.70;99.90;;;;;;5026677;28;20263;-38
2022/03/04 01:01:05;;;;;;;23.10;14.27;;;3.90;99.90;;;;;;5026225;28;20467;-38
2022/03/04 01:03:31;;;;;;;20.40;15.17;;;3.90;99.90;;;;;;5026393;28;20453;-37
2022/03/04 01:05:58;;;;;;;21.50;14.73;;;4.00;99.90;;;;;;5016982;28;20837;-38
2022/03/04 01:08:24;;;;;;;21.47;14.93;;;3.70;99.90;;;;;;5023357;28;20425;-37
2022/03/04 01:10:50;;;;;;;22.57;14.20;;;3.80;99.90;;;;;;5026047;28;21052;-38
2022/03/04 01:13:15;;;;;;;22.83;15.20;;;3.80;99.90;;;;;;5025177;28;20884;-38
2022/03/04 01:15:41;;;;;;;19.00;13.03;;;3.70;99.90;;;;;;5028172;28;20205;-38
2022/03/04 01:18:07;;;;;;;19.10;14.57;;;3.70;99.90;;;;;;5029806;28;20970;-38
2022/03/04 01:20:33;;;;;;;19.57;15.13;;;3.60;99.90;;;;;;5025938;28;20561;-38
2022/03/04 01:23:00;;;;;;;23.63;15.30;;;3.50;99.90;;;;;;5025868;28;20182;-37
2022/03/04 01:25:26;;;;;;;22.50;14.83;;;3.50;99.90;;;;;;5029876;28;20424;-38
2022/03/04 01:27:52;;;;;;;21.80;15.70;;;3.70;99.90;;;;;;5030018;28;20421;-37
2022/03/04 01:30:18;;;;;;;23.10;13.90;;;3.30;99.90;;;;;;5029625;28;20459;-37
2022/03/04 01:32:45;;;;;;;23.70;15.13;;;3.40;99.90;;;;;;5029635;28;20187;-37
2022/03/04 01:35:11;;;;;;;23.93;15.33;;;3.30;99.90;;;;;;5027351;28;20436;-38
2022/03/04 01:37:37;;;;;;;23.77;14.63;;;3.20;99.90;;;;;;5026690;28;20425;-37
2022/03/04 01:40:05;;;;;;;19.70;13.93;;;3.20;99.90;;;;;;5028900;28;20923;-37
2022/03/04 01:42:30;;;;;;;21.00;15.50;;;3.20;99.90;;;;;;5029734;28;20452;-37
2022/03/04 01:44:56;;;;;;;23.20;15.67;;;3.10;99.90;;;;;;5029556;28;20460;-37
2022/03/04 01:47:22;;;;;;;23.23;14.97;;;2.90;99.90;;;;;;5029560;28;20540;-38
2022/03/04 01:49:48;;;;;;;21.80;14.97;;;2.70;99.90;;;;;;5028931;28;20559;-37
2022/03/04 01:52:13;;;;;;;20.50;14.40;;;2.80;99.90;;;;;;5020925;28;20572;-37
2022/03/04 01:54:39;;;;;;;19.03;14.53;;;2.60;99.90;;;;;;5029443;28;20185;-38
2022/03/04 01:57:05;;;;;;;20.20;14.20;;;3.00;99.90;;;;;;5029041;28;20720;-38
2022/03/04 01:59:31;;;;;;;22.63;14.70;;;2.90;99.90;;;;;;5029412;28;20764;-38
2022/03/04 02:01:57;;;;;;;20.00;13.90;;;2.60;99.90;;;;;;5028463;28;20432;-38
2022/03/04 02:04:24;;;;;;;22.60;15.60;;;2.70;99.90;;;;;;5029363;28;20294;-37
2022/03/04 02:06:50;;;;;;;20.20;15.10;;;2.50;99.90;;;;;;5018652;28;20178;-38
2022/03/04 02:09:16;;;;;;;23.87;15.30;;;2.40;99.90;;;;;;5029257;28;20457;-39
2022/03/04 02:11:44;;;;;;;22.23;14.97;;;2.30;99.90;;;;;;5028104;28;20475;-38
2022/03/04 02:14:11;;;;;;;21.13;14.50;;;2.40;99.90;;;;;;5029123;28;20456;-38
2022/03/04 02:16:51;;;;;;;22.67;14.33;;;2.40;99.90;;;;;;5028797;28;20413;-39
2022/03/04 02:19:19;;;;;;;23.53;15.20;;;2.30;99.90;;;;;;5029141;28;20923;-37
2022/03/04 02:21:52;;;;;;;20.70;15.70;;;2.30;99.90;;;;;;5020249;28;20460;-38
2022/03/04 02:24:18;;;;;;;23.37;15.97;;;2.20;99.90;;;;;;5025211;28;20791;-37
2022/03/04 02:26:45;;;;;;;21.50;15.20;;;2.50;99.90;;;;;;5028294;28;20479;-37
2022/03/04 02:29:12;;;;;;;26.10;17.37;;;2.10;99.90;;;;;;5028701;28;20807;-38
2022/03/04 02:31:38;;;;;;;24.60;16.10;;;2.10;99.90;;;;;;5028138;28;20421;-37
2022/03/04 02:34:03;;;;;;;21.80;14.50;;;2.30;99.90;;;;;;5028693;28;20972;-37
2022/03/04 02:36:29;;;;;;;24.30;16.13;;;2.30;99.90;;;;;;5021018;28;20614;-38
2022/03/04 02:38:55;;;;;;;22.23;15.90;;;2.20;99.90;;;;;;5022964;28;20417;-38
2022/03/04 02:41:21;;;;;;;20.00;14.53;;;2.50;99.90;;;;;;5027576;28;20194;-39
2022/03/04 02:43:46;;;;;;;22.07;16.13;;;2.50;99.90;;;;;;5028081;28;20198;-38
2022/03/04 02:46:13;;;;;;;21.97;16.00;;;2.70;99.90;;;;;;5028441;28;20689;-38
2022/03/04 02:48:39;;;;;;;22.03;15.87;;;2.80;99.90;;;;;;5028391;28;20232;-38
2022/03/04 02:51:05;;;;;;;22.80;16.13;;;2.80;99.90;;;;;;5023352;28;21035;-39
2022/03/04 02:53:31;;;;;;;21.90;16.03;;;3.10;99.90;;;;;;5024796;28;20448;-39
2022/03/04 02:55:57;;;;;;;24.47;15.23;;;2.90;99.90;;;;;;5027720;28;20421;-38
2022/03/04 02:58:23;;;;;;;23.23;15.80;;;2.90;99.90;;;;;;5027796;28;20439;-38
2022/03/04 03:00:49;;;;;;;20.50;14.83;;;2.80;99.90;;;;;;5027565;28;20201;-38
2022/03/04 03:03:16;;;;;;;24.27;16.57;;;2.40;99.90;;;;;;5027789;28;20538;-37
2022/03/04 03:05:42;;;;;;;24.87;15.70;;;2.40;99.90;;;;;;5027884;28;20508;-38
2022/03/04 03:08:08;;;;;;;21.90;15.63;;;2.50;99.90;;;;;;5017751;28;20531;-37
2022/03/04 03:10:34;;;;;;;23.60;15.70;;;2.40;99.90;;;;;;5026929;28;20457;-39
2022/03/04 03:13:00;;;;;;;21.87;15.43;;;2.30;99.90;;;;;;5026530;28;20699;-38
2022/03/04 03:15:27;;;;;;;27.90;16.93;;;2.10;99.90;;;;;;5028174;28;20428;-38
2022/03/04 03:17:53;;;;;;;20.87;15.50;;;2.20;99.90;;;;;;5028071;28;20429;-38
2022/03/04 03:20:19;;;;;;;22.93;16.10;;;1.90;99.90;;;;;;5027066;28;20499;-38
2022/03/04 03:22:44;;;;;;;21.20;14.83;;;1.90;99.90;;;;;;5015463;28;20441;-37
2022/03/04 03:25:12;;;;;;;24.47;15.77;;;1.80;99.90;;;;;;5027158;28;20492;-40
2022/03/04 03:27:38;;;;;;;22.67;16.03;;;1.70;99.90;;;;;;5028146;28;20233;-38
2022/03/04 03:30:05;;;;;;;22.43;15.37;;;1.60;99.90;;;;;;5026778;28;20534;-37
2022/03/04 03:32:31;;;;;;;23.47;15.73;;;1.80;99.90;;;;;;5027601;28;20429;-38
2022/03/04 03:34:56;;;;;;;23.60;15.53;;;1.80;99.90;;;;;;5027377;28;20832;-37
2022/03/04 03:37:22;;;;;;;21.20;15.20;;;1.70;99.90;;;;;;5018411;28;20513;-38
2022/03/04 03:39:48;;;;;;;22.43;15.43;;;2.00;99.90;;;;;;5024316;28;20316;-37
2022/03/04 03:42:14;;;;;;;25.10;16.23;;;2.10;99.90;;;;;;5027077;28;20206;-37
2022/03/04 03:44:40;;;;;;;25.00;15.57;;;2.00;99.90;;;;;;5027220;28;20501;-38
2022/03/04 03:47:06;;;;;;;23.97;15.50;;;2.30;99.90;;;;;;5027302;28;20487;-38
2022/03/04 03:49:32;;;;;;;22.10;15.30;;;2.10;99.90;;;;;;5027033;28;20272;-37
2022/03/04 03:51:57;;;;;;;21.37;15.63;;;2.20;99.90;;;;;;5019524;28;20880;-37
2022/03/04 03:54:23;;;;;;;22.67;15.60;;;2.20;99.90;;;;;;5026326;28;20643;-37
2022/03/04 03:56:49;;;;;;;22.43;15.37;;;2.20;99.90;;;;;;5026711;28;20206;-37
2022/03/04 03:59:15;;;;;;;20.80;14.37;;;2.30;99.90;;;;;;5027340;28;20559;-37
2022/03/04 04:01:41;;;;;;;21.20;15.90;;;2.60;99.90;;;;;;5025936;28;20926;-37
2022/03/04 04:04:13;;;;;;;20.10;14.30;;;2.80;99.90;;;;;;5027096;28;20540;-38
2022/03/04 04:06:41;;;;;;;22.27;13.80;;;2.60;99.90;;;;;;5024144;28;20805;-39
2022/03/04 04:09:08;;;;;;;24.60;15.50;;;2.80;99.90;;;;;;5015635;28;20441;-37
2022/03/04 04:11:35;;;;;;;20.83;14.60;;;2.70;99.90;;;;;;5026345;28;20528;-38
2022/03/04 04:14:10;;;;;;;21.90;14.23;;;2.80;99.90;;;;;;5027690;28;20756;-37
2022/03/04 04:16:36;;;;;;;20.70;13.80;;;2.80;99.90;;;;;;5028901;28;20428;-38
2022/03/04 04:19:03;;;;;;;19.87;14.13;;;2.90;99.90;;;;;;5046899;28;20423;-38
2022/03/04 04:21:29;;;;;;;22.77;16.00;;;2.60;99.90;;;;;;5027604;28;20421;-38
2022/03/04 04:23:55;;;;;;;23.23;15.20;;;3.00;99.90;;;;;;5017919;28;20416;-40
2022/03/04 04:26:22;;;;;;;21.93;15.00;;;2.80;99.90;;;;;;5026598;28;20625;-38
2022/03/04 04:28:48;;;;;;;20.77;14.83;;;3.00;99.90;;;;;;5027013;28;20425;-39
2022/03/04 04:31:14;;;;;;;26.93;15.03;;;3.00;99.90;;;;;;5024721;28;20594;-39
2022/03/04 04:33:40;;;;;;;22.53;15.33;;;2.80;99.90;;;;;;5027199;28;20467;-37
2022/03/04 04:36:06;;;;;;;24.10;15.50;;;2.70;99.90;;;;;;5026491;28;20473;-37
2022/03/04 04:38:32;;;;;;;20.57;14.63;;;2.90;99.90;;;;;;5014046;28;20265;-37
2022/03/04 04:40:58;;;;;;;21.50;14.50;;;2.50;99.90;;;;;;5026058;28;20634;-37
2022/03/04 04:43:23;;;;;;;20.57;13.97;;;2.70;99.90;;;;;;5026742;28;20429;-37
2022/03/04 04:45:50;;;;;;;22.47;14.73;;;2.50;99.90;;;;;;5026711;28;20827;-38
2022/03/04 04:48:16;;;;;;;22.30;15.40;;;2.30;99.90;;;;;;5026536;28;20220;-38
2022/03/04 04:50:42;;;;;;;22.33;16.10;;;2.40;99.90;;;;;;5027353;28;20558;-38
2022/03/04 04:53:08;;;;;;;22.73;15.00;;;2.20;99.90;;;;;;5021717;28;20429;-39
2022/03/04 04:55:34;;;;;;;20.17;14.70;;;2.30;99.90;;;;;;5028654;28;20186;-38
2022/03/04 04:57:59;;;;;;;23.30;13.90;;;2.30;99.90;;;;;;5030444;28;20231;-38
2022/03/04 05:00:26;;;;;;;21.77;14.00;;;2.40;99.90;;;;;;5028378;28;20183;-38
2022/03/04 05:02:51;;;;;;;19.93;15.17;;;2.40;99.90;;;;;;5030318;28;20201;-39
2022/03/04 05:05:18;;;;;;;21.80;14.83;;;2.40;99.90;;;;;;5030816;28;20668;-38
2022/03/04 05:07:43;;;;;;;21.27;14.00;;;2.30;99.90;;;;;;5023628;28;20788;-37
2022/03/04 05:10:09;;;;;;;23.17;14.17;;;2.40;99.90;;;;;;5026426;28;20484;-37
2022/03/04 05:12:35;;;;;;;24.30;15.40;;;2.50;99.90;;;;;;5030576;28;20383;-39
2022/03/04 05:15:00;;;;;;;20.50;15.40;;;2.20;99.90;;;;;;5029954;28;20186;-40
2022/03/04 05:17:26;;;;;;;18.80;14.10;;;2.40;99.90;;;;;;5029981;28;20697;-39
2022/03/04 05:19:52;;;;;;;19.27;13.97;;;2.00;99.90;;;;;;5029508;28;20195;-38
2022/03/04 05:22:18;;;;;;;22.50;15.20;;;1.90;99.90;;;;;;5031278;28;20191;-38
2022/03/04 05:24:44;;;;;;;21.43;14.33;;;2.20;99.90;;;;;;5025412;28;20226;-38
2022/03/04 05:27:10;;;;;;;19.50;13.73;;;2.00;99.90;;;;;;5029894;28;20420;-38
2022/03/04 05:29:36;;;;;;;23.53;15.20;;;1.80;99.90;;;;;;5022648;28;20786;-38
2022/03/04 05:32:02;;;;;;;23.13;15.03;;;1.60;99.90;;;;;;5025156;28;20201;-38
2022/03/04 05:34:28;;;;;;;21.37;14.50;;;1.80;99.90;;;;;;5029285;28;20449;-37
2022/03/04 05:36:54;;;;;;;20.67;14.80;;;1.80;99.90;;;;;;5029438;28;20514;-38
2022/03/04 05:39:20;;;;;;;21.97;14.70;;;1.70;99.90;;;;;;5019171;28;20198;-38
2022/03/04 05:41:46;;;;;;;22.83;15.03;;;1.70;99.90;;;;;;5020621;28;20414;-38
2022/03/04 05:44:13;;;;;;;20.70;14.43;;;1.90;99.90;;;;;;5029908;28;20990;-38
2022/03/04 05:46:39;;;;;;;19.40;13.90;;;2.00;99.90;;;;;;5029284;28;20687;-38
2022/03/04 05:49:05;;;;;;;20.67;13.80;;;1.90;99.90;;;;;;5029078;28;20922;-38
2022/03/04 05:51:31;;;;;;;20.33;14.63;;;1.80;99.90;;;;;;5025450;28;20675;-39
2022/03/04 05:53:57;;;;;;;22.40;14.20;;;1.70;99.90;;;;;;5019818;28;20236;-38
2022/03/04 05:56:23;;;;;;;20.67;14.17;;;1.80;99.90;;;;;;5028810;28;20912;-38
2022/03/04 05:58:50;;;;;;;23.10;16.87;;;1.50;99.90;;;;;;5029244;28;20429;-37
2022/03/04 06:01:15;;;;;;;21.67;15.60;;;1.50;99.90;;;;;;5028034;28;20645;-37
2022/03/04 06:03:41;;;;;;;21.83;15.30;;;1.50;99.90;;;;;;5028238;28;20444;-40
2022/03/04 06:06:10;;;;;;;23.63;14.93;;;1.50;99.90;;;;;;5027698;28;20968;-40
2022/03/04 06:08:36;;;;;;;23.63;14.70;;;1.60;99.90;;;;;;5024192;28;20618;-40
2022/03/04 06:11:01;;;;;;;21.37;14.47;;;1.40;99.90;;;;;;5025724;28;20512;-39
2022/03/04 06:13:27;;;;;;;23.47;14.93;;;1.30;99.90;;;;;;5028797;28;20699;-39
2022/03/04 06:15:53;;;;;;;21.83;14.90;;;1.20;99.90;;;;;;5027333;28;20555;-40
2022/03/04 06:18:18;;;;;;;25.37;15.37;;;1.30;99.90;;;;;;5028759;28;20707;-39
2022/03/04 06:20:45;;;;;;;23.53;15.67;;;1.30;99.90;;;;;;5028242;28;20194;-40
2022/03/04 06:23:11;;;;;;;22.70;14.60;;;1.60;99.90;;;;;;5031791;28;20187;-40
2022/03/04 06:25:37;;;;;;;24.10;15.87;;;1.70;99.90;;;;;;5027357;28;20437;-39
2022/03/04 06:28:04;;;;;;;22.53;16.37;;;1.60;99.90;;;;;;5026932;28;20587;-40
2022/03/04 06:30:32;;;;;;;21.60;15.73;;;1.70;99.90;;;;;;5025987;28;20218;-40
2022/03/04 06:35:44;;;;;;;28.30;16.93;;;1.30;99.90;;;;;;5028437;28;20422;-39
2022/03/04 06:38:10;;;;;;;28.07;17.80;;;1.30;99.90;;;;;;5021190;28;20462;-39
2022/03/04 06:40:36;;;;;;;29.70;18.93;;;1.30;99.90;;;;;;5026697;28;20834;-40
2022/03/04 06:43:03;;;;;;;26.30;16.30;;;1.60;99.90;;;;;;5028112;28;20206;-39
2022/03/04 06:45:28;;;;;;;26.70;17.20;;;1.40;99.90;;;;;;5042796;28;20885;-40
2022/03/04 06:47:54;;;;;;;27.10;17.03;;;1.30;99.90;;;;;;5037862;28;20511;-40
2022/03/04 06:50:20;;;;;;;28.43;17.83;;;1.50;99.90;;;;;;5047643;28;20598;-40
2022/03/04 06:52:45;;;;;;;30.00;19.03;;;1.30;99.90;;;;;;5026229;28;20218;-40
2022/03/04 06:55:11;;;;;;;30.60;18.00;;;1.40;99.90;;;;;;5022468;28;20201;-40
2022/03/04 06:57:39;;;;;;;28.53;18.60;;;1.60;99.90;;;;;;5026591;28;20206;-40
2022/03/04 07:00:07;;;;;;;43.73;20.67;;;1.50;99.90;;;;;;5026591;28;20221;-40
2022/03/04 07:02:34;;;;;;;29.23;18.67;;;1.80;99.90;;;;;;5027038;28;20823;-40
2022/03/04 07:05:02;;;;;;;31.47;20.20;;;1.70;99.90;;;;;;5026945;28;20807;-41
2022/03/04 07:07:28;;;;;;;31.17;18.77;;;1.70;99.90;;;;;;5026954;28;20475;-40
2022/03/04 07:09:54;;;;;;;33.23;19.60;;;1.50;99.90;;;;;;5016559;28;21038;-40
2022/03/04 07:12:20;;;;;;;34.33;19.33;;;1.80;99.90;;;;;;5027674;28;20277;-40
2022/03/04 07:14:46;;;;;;;37.33;19.83;;;1.70;99.90;;;;;;5029004;28;20213;-40
2022/03/04 07:17:12;;;;;;;30.77;17.77;;;1.80;99.90;;;;;;5046216;28;20186;-40
2022/03/04 07:19:38;;;;;;;30.90;18.67;;;1.80;99.90;;;;;;5044649;28;20442;-40
2022/03/04 07:22:04;;;;;;;31.10;20.13;;;2.10;99.90;;;;;;5027009;28;20285;-40
2022/03/04 07:24:30;;;;;;;31.27;19.40;;;1.90;99.90;;;;;;5022599;28;20469;-40
2022/03/04 07:26:56;;;;;;;33.27;20.33;;;2.00;99.90;;;;;;5026383;28;20436;-40
2022/03/04 07:29:22;;;;;;;29.03;19.07;;;2.10;99.90;;;;;;5027021;28;20222;-40
2022/03/04 07:31:48;;;;;;;29.53;18.43;;;2.50;99.90;;;;;;5025815;28;20450;-40
2022/03/04 07:34:14;;;;;;;30.47;18.87;;;2.30;99.90;;;;;;5025808;28;20187;-40
2022/03/04 07:36:39;;;;;;;30.40;18.67;;;2.60;99.90;;;;;;5027612;28;20842;-40
2022/03/04 07:39:05;;;;;;;32.50;18.57;;;2.90;99.90;;;;;;5019239;28;20218;-40
2022/03/04 07:41:31;;;;;;;29.63;18.67;;;3.10;99.90;;;;;;5019725;28;20249;-40
2022/03/04 07:43:59;;;;;;;29.23;19.40;;;3.40;99.90;;;;;;5027464;28;20229;-40
2022/03/04 07:46:25;;;;;;;31.57;17.20;;;3.30;99.90;;;;;;5027268;28;20623;-40
2022/03/04 07:48:51;;;;;;;32.73;18.73;;;3.70;99.90;;;;;;5009512;28;20426;-40
2022/03/04 07:51:16;;;;;;;30.27;18.20;;;4.20;99.90;;;;;;5026612;28;20568;-40
2022/03/04 07:53:42;;;;;;;30.93;18.63;;;4.20;99.90;;;;;;5027088;28;20576;-40
2022/03/04 07:56:10;;;;;;;23.70;15.57;;;4.70;99.90;;;;;;5021869;28;20190;-40
2022/03/04 07:58:36;;;;;;;31.80;19.90;;;5.00;99.90;;;;;;5027306;28;20191;-40
2022/03/04 08:01:02;;;;;;;26.57;18.30;;;5.10;99.90;;;;;;5026510;28;20433;-40
2022/03/04 08:03:28;;;;;;;25.50;15.63;;;5.30;99.90;;;;;;5027043;28;20927;-40
2022/03/04 08:05:53;;;;;;;27.93;18.10;;;5.50;99.90;;;;;;5027020;28;20421;-40
2022/03/04 08:08:19;;;;;;;29.60;18.53;;;5.70;99.90;;;;;;5022744;28;20256;-40
2022/03/04 08:10:45;;;;;;;29.60;17.50;;;5.80;99.90;;;;;;5017428;28;20212;-40
2022/03/04 08:13:10;;;;;;;27.77;18.80;;;6.10;99.90;;;;;;5025687;28;20186;-40
2022/03/04 08:15:36;;;;;;;30.90;18.73;;;6.20;99.90;;;;;;5026959;28;20183;-40
2022/03/04 08:18:02;;;;;;;27.23;16.97;;;6.20;99.70;;;;;;5025322;28;20190;-40
2022/03/04 08:20:29;;;;;;;25.83;18.10;;;6.40;99.10;;;;;;5026369;28;20531;-40
2022/03/04 08:22:55;;;;;;;30.67;18.93;;;6.60;99.10;;;;;;5042054;28;20436;-40
2022/03/04 08:25:21;;;;;;;32.60;18.40;;;6.40;99.20;;;;;;5016309;28;20441;-40
2022/03/04 08:27:46;;;;;;;25.40;16.70;;;6.60;99.00;;;;;;5026690;28;20452;-39
2022/03/04 08:30:13;;;;;;;24.73;17.10;;;6.70;99.20;;;;;;5026395;28;20220;-40
2022/03/04 08:32:40;;;;;;;26.93;18.80;;;7.10;98.80;;;;;;5026563;28;20673;-41
2022/03/04 08:35:08;;;;;;;27.87;17.37;;;7.40;98.60;;;;;;5027237;28;20482;-40
2022/03/04 08:37:34;;;;;;;29.27;18.57;;;7.30;97.40;;;;;;5026095;28;20508;-40
2022/03/04 08:40:00;;;;;;;27.60;17.43;;;7.40;96.90;;;;;;5019239;28;20453;-40
2022/03/04 08:42:26;;;;;;;27.80;18.27;;;7.60;97.50;;;;;;5025985;28;20425;-40
2022/03/04 08:44:53;;;;;;;24.67;16.67;;;7.70;97.00;;;;;;5026703;28;20434;-40
2022/03/04 08:47:19;;;;;;;22.40;16.57;;;7.70;96.20;;;;;;5026510;28;20190;-40
2022/03/04 08:49:45;;;;;;;27.00;17.57;;;8.00;96.90;;;;;;5024700;28;20476;-40
2022/03/04 08:52:11;;;;;;;25.30;17.30;;;7.90;96.70;;;;;;5024878;28;20445;-40
2022/03/04 08:54:37;;;;;;;23.77;17.60;;;8.00;96.70;;;;;;5017710;28;20241;-40
2022/03/04 08:57:03;;;;;;;24.70;17.97;;;8.00;96.40;;;;;;5024983;28;20225;-39
2022/03/04 08:59:29;;;;;;;25.93;17.27;;;8.30;96.10;;;;;;5026223;28;20429;-40
2022/03/04 09:01:56;;;;;;;23.53;16.50;;;8.50;95.60;;;;;;5025418;28;20429;-40
2022/03/04 09:04:22;;;;;;;25.40;17.17;;;8.60;94.70;;;;;;5026237;28;20179;-40
2022/03/04 09:06:48;;;;;;;22.90;16.07;;;8.70;94.50;;;;;;5026251;28;20426;-40
2022/03/04 09:09:14;;;;;;;20.80;15.53;;;8.80;93.90;;;;;;5018071;28;20941;-38
2022/03/04 09:11:40;;;;;;;20.37;14.90;;;9.00;94.30;;;;;;5023428;28;20187;-40
2022/03/04 09:14:06;;;;;;;20.10;14.40;;;9.00;93.90;;;;;;5026347;28;20213;-38
2022/03/04 09:16:31;;;;;;;20.87;15.57;;;9.30;93.30;;;;;;5025182;28;20792;-40
2022/03/04 09:18:57;;;;;;;22.23;15.50;;;9.10;91.90;;;;;;5026591;28;20417;-39
2022/03/04 09:21:23;;;;;;;23.57;15.40;;;9.20;93.20;;;;;;5026555;28;20201;-38
2022/03/04 09:23:49;;;;;;;23.43;16.60;;;9.30;92.50;;;;;;5036855;28;20437;-39
2022/03/04 09:26:15;;;;;;;22.57;17.00;;;9.40;92.60;;;;;;5014393;28;20186;-38
2022/03/04 09:28:41;;;;;;;20.10;15.23;;;9.50;92.30;;;;;;5026278;28;20194;-38
2022/03/04 09:31:06;;;;;;;22.77;15.80;;;9.60;91.90;;;;;;5025688;28;20222;-37
2022/03/04 09:33:32;;;;;;;20.53;15.87;;;9.60;92.00;;;;;;5008669;28;20947;-40
2022/03/04 09:36:00;;;;;;;21.27;16.13;;;9.70;92.00;;;;;;5025982;28;20507;-39
2022/03/04 09:38:26;;;;;;;22.07;15.93;;;9.70;92.30;;;;;;5027516;28;20218;-38
2022/03/04 09:40:52;;;;;;;23.17;15.97;;;9.90;91.90;;;;;;5014536;28;21394;-38
2022/03/04 09:43:21;;;;;;;27.90;16.07;;;10.10;90.80;;;;;;5029726;28;20432;-39
2022/03/04 09:45:49;;;;;;;24.30;16.27;;;10.30;90.40;;;;;;5029524;28;20437;-39
2022/03/04 09:48:15;;;;;;;19.87;14.80;;;10.40;90.40;;;;;;5029862;28;20986;-38
2022/03/04 09:50:47;;;;;;;21.00;15.73;;;10.60;89.10;;;;;;5028783;28;20467;-39
2022/03/04 09:53:14;;;;;;;19.87;15.23;;;10.80;88.40;;;;;;5029614;28;20482;-38
2022/03/04 09:55:41;;;;;;;24.07;15.70;;;10.80;88.10;;;;;;5017339;28;20456;-39
2022/03/04 09:58:24;;;;;;;21.73;15.63;;;11.20;86.60;;;;;;5029497;28;20460;-38
2022/03/04 10:00:50;;;;;;;21.67;15.23;;;11.40;87.70;;;;;;5047111;28;20428;-38
2022/03/04 10:03:20;;;;;;;20.77;15.80;;;11.20;85.70;;;;;;5039132;28;20429;-38
2022/03/04 10:05:53;;;;;;;22.00;16.40;;;11.30;85.60;;;;;;5049165;28;20243;-38
2022/03/04 10:08:20;;;;;;;20.63;14.70;;;11.50;86.00;;;;;;5049229;28;20436;-38
2022/03/04 10:10:56;;;;;;;21.20;15.07;;;11.80;82.40;;;;;;5022766;28;20473;-39
2022/03/04 10:13:41;;;;;;;21.80;15.47;;;11.90;81.00;;;;;;5029061;28;20818;-38
2022/03/04 10:16:07;;;;;;;23.53;16.70;;;11.90;81.80;;;;;;5029192;28;20452;-39
2022/03/04 10:18:33;;;;;;;21.30;16.43;;;11.80;79.70;;;;;;5029153;28;20901;-39
2022/03/04 10:20:59;;;;;;;20.77;15.43;;;12.00;78.00;;;;;;5028095;28;20539;-38
2022/03/04 10:23:26;;;;;;;19.20;15.17;;;12.00;76.70;;;;;;5048376;28;21027;-38
2022/03/04 10:25:55;;;;;;;19.70;15.33;;;12.30;75.90;;;;;;5021767;28;20198;-38
2022/03/04 10:28:25;;;;;;;23.87;15.80;;;12.30;74.80;;;;;;5025425;28;20460;-38
2022/03/04 10:30:53;;;;;;;21.20;15.70;;;12.40;70.70;;;;;;5028163;28;20531;-38
2022/03/04 10:33:28;;;;;;;24.70;16.13;;;12.30;74.10;;;;;;5028468;28;20795;-38
2022/03/04 10:36:11;;;;;;;21.10;15.83;;;12.10;72.30;;;;;;5028636;28;20482;-38
2022/03/04 10:38:37;;;;;;;22.83;16.50;;;12.20;72.50;;;;;;5028318;28;20492;-40
2022/03/04 10:41:22;;;;;;;23.20;17.20;;;12.10;72.70;;;;;;5015227;28;20436;-38
2022/03/04 10:43:48;;;;;;;22.37;16.43;;;12.10;72.10;;;;;;5021887;28;20425;-37
2022/03/04 10:46:14;;;;;;;22.17;16.67;;;12.20;72.10;;;;;;5027494;28;20483;-38
2022/03/04 10:48:54;;;;;;;22.00;16.10;;;12.30;73.70;;;;;;5028022;28;20198;-39
2022/03/04 10:51:39;;;;;;;22.50;16.63;;;12.40;73.20;;;;;;5027750;28;20476;-38
2022/03/04 10:54:16;;;;;;;24.87;16.57;;;12.40;73.40;;;;;;5027236;28;20430;-39
2022/03/04 10:56:54;;;;;;;22.30;16.97;;;12.50;74.20;;;;;;5022557;28;20819;-39
2022/03/04 10:59:20;;;;;;;21.90;15.37;;;12.60;72.80;;;;;;5024640;28;20504;-39
2022/03/04 11:01:50;;;;;;;22.80;16.57;;;12.70;70.80;;;;;;5027863;28;20779;-39
2022/03/04 11:04:20;;;;;;;23.70;17.80;;;12.60;70.80;;;;;;5028305;28;20421;-38
2022/03/04 11:06:47;;;;;;;24.17;16.60;;;12.40;72.80;;;;;;5028572;28;20465;-38
2022/03/04 11:09:14;;;;;;;22.00;16.43;;;12.30;73.90;;;;;;5026238;28;20568;-39
2022/03/04 11:11:43;;;;;;;23.77;16.27;;;12.00;72.60;;;;;;5023600;28;20465;-43
2022/03/04 11:14:12;;;;;;;26.60;18.10;;;12.00;75.30;;;;;;5027953;28;21054;-40
2022/03/04 11:16:39;;;;;;;24.53;17.37;;;11.90;75.70;;;;;;5028453;28;20421;-39
2022/03/04 11:19:09;;;;;;;24.60;17.37;;;11.60;74.80;;;;;;5028542;28;20587;-38
2022/03/04 11:21:35;;;;;;;24.80;17.53;;;11.30;76.60;;;;;;5043431;28;21053;-38
2022/03/04 11:24:01;;;;;;;26.77;17.00;;;11.30;78.00;;;;;;5048049;28;20510;-39
2022/03/04 11:26:31;;;;;;;25.40;18.37;;;11.40;75.70;;;;;;5020219;28;20299;-40
2022/03/04 11:29:00;;;;;;;24.20;16.23;;;11.30;75.00;;;;;;5028099;28;20963;-38
2022/03/04 11:31:29;;;;;;;22.27;17.33;;;11.20;72.70;;;;;;5027349;28;20475;-38
2022/03/04 11:33:58;;;;;;;24.13;17.83;;;11.50;73.90;;;;;;5028017;28;20708;-38
2022/03/04 11:36:29;;;;;;;32.47;18.33;;;11.20;74.20;;;;;;5028393;28;20433;-39
2022/03/04 11:39:01;;;;;;;22.10;16.27;;;11.40;74.70;;;;;;5027739;28;20928;-40
2022/03/04 11:41:26;;;;;;;26.80;17.63;;;11.20;75.70;;;;;;5017189;28;20935;-38
2022/03/04 11:44:01;;;;;;;21.67;15.77;;;11.60;75.20;;;;;;5027678;28;20425;-39
2022/03/04 11:46:28;;;;;;;24.93;16.50;;;11.80;75.00;;;;;;5027944;28;20196;-38
2022/03/04 11:49:38;;;;;;;22.40;15.47;;;12.10;72.80;;;;;;5027920;28;20440;-38
2022/03/04 11:52:10;;;;;;;28.43;16.50;;;12.50;75.00;;;;;;5026225;28;20542;-38
2022/03/04 11:54:44;;;;;;;22.37;16.77;;;12.70;71.50;;;;;;5025478;28;20424;-41
2022/03/04 11:57:25;;;;;;;21.83;17.47;;;12.80;71.20;;;;;;5018498;28;20444;-38
2022/03/04 11:59:51;;;;;;;19.93;15.60;;;12.80;69.10;;;;;;5018115;28;20413;-38
2022/03/04 12:02:36;;;;;;;22.83;17.23;;;12.90;69.90;;;;;;5027338;28;20417;-38
2022/03/04 12:05:19;;;;;;;23.60;16.03;;;12.90;67.00;;;;;;5027161;28;20461;-40
2022/03/04 12:07:54;;;;;;;23.20;17.00;;;13.00;68.10;;;;;;5027515;28;20490;-38
2022/03/04 12:10:31;;;;;;;20.57;16.70;;;13.10;68.20;;;;;;5020102;28;20852;-38
2022/03/04 12:13:06;;;;;;;20.63;14.83;;;13.30;66.80;;;;;;5020606;28;20486;-38
2022/03/04 12:15:38;;;;;;;21.03;15.57;;;13.40;65.90;;;;;;5025204;28;20507;-38
2022/03/04 12:18:24;;;;;;;20.20;15.37;;;13.40;62.80;;;;;;5026006;28;20436;-41
2022/03/04 12:20:55;;;;;;;19.67;15.20;;;13.60;63.90;;;;;;5036763;28;20434;-38
2022/03/04 12:23:48;;;;;;;20.83;16.07;;;13.50;60.40;;;;;;5047264;28;20821;-40
2022/03/04 12:26:22;;;;;;;21.60;15.70;;;13.60;62.60;;;;;;5023737;28;20446;-40
2022/03/04 12:28:52;;;;;;;24.60;17.07;;;13.50;64.10;;;;;;5024075;28;20444;-40
2022/03/04 12:31:24;;;;;;;21.97;14.87;;;13.50;63.80;;;;;;5026741;28;20461;-40
2022/03/04 12:33:56;;;;;;;20.40;15.23;;;13.60;60.90;;;;;;5027379;28;20426;-38
2022/03/04 12:36:24;;;;;;;21.93;16.13;;;13.60;62.70;;;;;;5027207;28;20413;-38
2022/03/04 12:38:58;;;;;;;21.87;16.03;;;13.60;64.20;;;;;;5026104;28;20425;-38
2022/03/04 12:41:27;;;;;;;21.17;15.60;;;13.60;59.90;;;;;;5020109;28;20552;-38